Aeroporto :
LOGIN :

Iscrizione | Disclaimer

   EN    FR    IT 

 










Sommario :    VFR   VFR Marginale   IFR   IFR Intensivo   IFR Molto Intensivo
Visibilità : 
Base nubi : 
>= 8 km
>= 3000ft
5 / 8 km
1000 / 3000 ft
1500m / 5 km
500 / 1000 ft
800 / 1500m
200 / 500 ft
< 800m
< 200 ft
Simboli :   Temporali  Nebbia  Neve Forte  Precipitazioni Forti  Vento > 20 kt
SIGMETs :   Varie  Temporali  Ghiacco  Turbolenza  Onda orograficha  Ceneri Vulcaniche






- Altitudine del aeroporto : 147 ft
- Codice IATA : DUS


EDDL - Düsseldorf Int.

ULTIMO METAR :
  • 230550Z 23005KT 0900 0200W R23R/0400N R23L/P2000N BCFG SCT003 04/04 Q1025 TEMPO 0700 BKN003

METARs OBSOLETI :
  • 230520Z 22004KT 0900 0200W R23R/0600N R23L/P2000N BCFG FEW003 04/04 Q1025 TEMPO 0700
  • 230450Z VRB01KT 0800 0200NE R23R/0500D R23L/P2000N BCFG FEW024 04/04 Q1025 TEMPO 0700
  • 230420Z 23003KT 1600 0400NE R23R/1100D R23L/P2000N BCFG FEW024 05/05 Q1025 TEMPO 0800
  • 230350Z VRB01KT 3500 0600NE R23R/0900D R23L/1100U BCFG FEW048 05/05 Q1025 TEMPO 0800
  • 230320Z 24003KT 8000 1500NE R23R/0650D R23L/0700D BCFG FEW048 06/06 Q1025 TEMPO 4000

TAF TAF EDDL
Valido dal 23 a 06 ore il 24 a 12 ore UTC


230500Z 2306/2412 VRB03KT 2000 BCFG FEW030
TEMPO 2306/2308 0500 FG OVC000
BECMG 2307/2310 21005KT 9999
BECMG 2314/2317 15005KT
BECMG 2321/2324 15010KT



MetMap, La meteo Aeronautica in un colpo d'occhio ! - Copyright ORBIFLY Dicembre 2007 - Disclaimer

ORBIFLY MET'MAP TEAM :

Programmazione e sviluppo : Alexandra Zaïnal
Concezione : Baudouin d'Aumeries
Aiuto per la programmazione : Marc-Olivier Méhu
Supporto tecnico e logistico : Manuel Goepfert
Aiuto per la traduzione : Arnaldo La Scala

Contatto : metmap@orbifly.com




FONTI E CREDITI :

   NOAA